createdAt,value
2023-05-13T00:00:49.748Z,5.74
2023-05-13T00:03:17.258Z,5.71
2023-05-13T00:05:45.746Z,5.69
2023-05-13T00:08:13.010Z,5.64
2023-05-13T00:10:40.004Z,5.58
2023-05-13T00:13:07.226Z,5.52
2023-05-13T00:15:34.123Z,5.46
2023-05-13T00:18:01.298Z,5.40
2023-05-13T00:20:28.515Z,5.33
2023-05-13T00:22:55.757Z,5.28
2023-05-13T00:25:22.677Z,5.33
2023-05-13T00:27:49.593Z,5.38
2023-05-13T00:30:16.540Z,5.39
2023-05-13T00:32:43.449Z,5.36
2023-05-13T00:35:10.667Z,5.35
2023-05-13T00:37:37.900Z,5.33
2023-05-13T00:40:05.621Z,5.33
2023-05-13T00:42:32.538Z,5.39
2023-05-13T00:44:59.668Z,5.42
2023-05-13T00:47:26.751Z,5.44
2023-05-13T00:49:53.914Z,5.44
2023-05-13T00:52:21.087Z,5.43
2023-05-13T00:54:48.130Z,5.43
2023-05-13T00:57:15.157Z,5.44
2023-05-13T00:59:42.250Z,5.44
2023-05-13T01:02:38.852Z,5.44
2023-05-13T01:05:12.682Z,5.40
2023-05-13T01:08:08.715Z,5.36
2023-05-13T01:10:44.733Z,5.29
2023-05-13T01:13:14.256Z,5.23
2023-05-13T01:15:48.367Z,5.16
2023-05-13T01:18:28.780Z,5.05
2023-05-13T01:20:57.039Z,4.96
2023-05-13T01:23:25.339Z,4.90
2023-05-13T01:25:52.799Z,4.88
2023-05-13T01:28:20.485Z,4.83
2023-05-13T01:30:52.268Z,4.77
2023-05-13T01:33:19.919Z,4.70
2023-05-13T01:35:47.918Z,4.64
2023-05-13T01:38:18.865Z,4.61
2023-05-13T01:40:49.741Z,4.58
2023-05-13T01:43:16.869Z,4.51
2023-05-13T01:45:43.898Z,4.48
2023-05-13T01:48:12.455Z,4.43
2023-05-13T01:50:43.910Z,4.40
2023-05-13T01:53:11.259Z,4.39
2023-05-13T01:55:39.636Z,4.36
2023-05-13T01:58:07.131Z,4.31
2023-05-13T02:00:34.357Z,4.24
2023-05-13T02:03:01.422Z,4.18
2023-05-13T02:05:28.721Z,4.20
2023-05-13T02:07:56.690Z,4.23
2023-05-13T02:10:24.196Z,4.25
2023-05-13T02:12:51.491Z,4.25
2023-05-13T02:15:18.602Z,4.24
2023-05-13T02:17:45.595Z,4.22
2023-05-13T02:20:14.513Z,4.24
2023-05-13T02:22:41.777Z,4.22
2023-05-13T02:25:09.484Z,4.22
2023-05-13T02:27:37.690Z,4.21
2023-05-13T02:30:06.013Z,4.22
2023-05-13T02:32:33.127Z,4.31
2023-05-13T02:35:00.142Z,4.56
2023-05-13T02:37:27.662Z,4.86
2023-05-13T02:40:01.291Z,5.17
2023-05-13T02:42:29.039Z,5.53
2023-05-13T02:44:56.246Z,5.87
2023-05-13T02:47:25.116Z,6.31
2023-05-13T02:49:53.448Z,6.74
2023-05-13T02:52:20.826Z,7.24
2023-05-13T02:54:48.176Z,7.82
2023-05-13T02:57:15.517Z,8.36
2023-05-13T02:59:43.368Z,8.90
2023-05-13T03:02:10.757Z,9.54
2023-05-13T03:04:37.925Z,10.21
2023-05-13T03:07:05.604Z,10.83
2023-05-13T03:09:35.163Z,11.37
2023-05-13T03:12:02.584Z,11.84
2023-05-13T03:14:29.722Z,12.43
2023-05-13T03:16:57.204Z,13.17
2023-05-13T03:19:24.544Z,13.86
2023-05-13T03:21:51.832Z,14.52
2023-05-13T03:24:18.957Z,15.16
2023-05-13T03:26:46.716Z,15.80
2023-05-13T03:29:13.885Z,16.40
2023-05-13T03:31:41.471Z,17.03
2023-05-13T03:34:08.980Z,17.53
2023-05-13T03:36:36.254Z,18.00
2023-05-13T03:39:03.487Z,18.28
2023-05-13T03:41:31.083Z,18.50
2023-05-13T03:43:59.985Z,18.80
2023-05-13T03:46:28.314Z,19.16
2023-05-13T03:48:56.404Z,19.57
2023-05-13T03:51:23.513Z,19.89
2023-05-13T03:53:51.387Z,20.19
2023-05-13T03:56:18.766Z,20.56
2023-05-13T03:58:46.588Z,21.12
2023-05-13T04:01:13.912Z,21.70
2023-05-13T04:03:42.980Z,22.21
2023-05-13T04:06:10.160Z,22.52
2023-05-13T04:08:37.338Z,22.76
2023-05-13T04:11:04.359Z,23.09
2023-05-13T04:13:34.866Z,23.44
2023-05-13T04:16:03.323Z,23.77
2023-05-13T04:18:34.097Z,23.90
2023-05-13T04:21:09.127Z,24.00
2023-05-13T04:23:36.917Z,24.28
2023-05-13T04:26:04.273Z,24.65
2023-05-13T04:28:32.067Z,24.98
2023-05-13T04:31:01.029Z,25.17
2023-05-13T04:33:28.600Z,25.39
2023-05-13T04:35:56.087Z,25.56
2023-05-13T04:38:23.464Z,25.71
2023-05-13T04:40:50.978Z,25.79
2023-05-13T04:43:25.828Z,25.64
2023-05-13T04:45:57.666Z,25.71
2023-05-13T04:48:28.754Z,25.78
2023-05-13T04:50:58.602Z,25.88
2023-05-13T04:53:26.593Z,26.05
2023-05-13T04:56:00.894Z,26.40
2023-05-13T04:58:29.755Z,26.79
2023-05-13T05:00:57.632Z,27.03
2023-05-13T05:03:25.475Z,27.41
2023-05-13T05:05:53.703Z,27.47
2023-05-13T05:08:21.852Z,27.68
2023-05-13T05:10:51.147Z,27.84
2023-05-13T05:13:19.225Z,27.76
2023-05-13T05:15:46.344Z,27.82
2023-05-13T05:18:14.845Z,28.03
2023-05-13T05:20:45.270Z,28.32
2023-05-13T05:23:20.086Z,28.63
2023-05-13T05:25:48.517Z,28.66
2023-05-13T05:28:17.704Z,28.91
2023-05-13T05:30:46.317Z,29.18
2023-05-13T05:33:22.196Z,29.40
2023-05-13T05:35:51.039Z,29.47
2023-05-13T05:38:21.076Z,29.84
2023-05-13T05:40:49.078Z,30.30
2023-05-13T05:43:16.655Z,30.84
2023-05-13T05:45:44.969Z,31.46
2023-05-13T05:48:16.914Z,32.04
2023-05-13T05:50:44.433Z,32.17
2023-05-13T05:53:16.236Z,32.31
2023-05-13T05:55:44.610Z,32.63
2023-05-13T05:58:15.438Z,32.70
2023-05-13T06:00:43.261Z,32.59
2023-05-13T06:03:11.061Z,32.89
2023-05-13T06:05:39.666Z,33.32
2023-05-13T06:08:06.756Z,33.79
2023-05-13T06:10:34.096Z,34.18
2023-05-13T06:13:01.450Z,34.48
2023-05-13T06:15:29.906Z,34.78
2023-05-13T06:17:57.984Z,35.10
2023-05-13T06:20:25.770Z,35.22
2023-05-13T06:22:53.216Z,35.37
2023-05-13T06:25:20.927Z,35.08
2023-05-13T06:27:51.321Z,34.85
2023-05-13T06:30:21.956Z,35.01
2023-05-13T06:33:00.087Z,35.23
2023-05-13T06:35:30.501Z,35.74
2023-05-13T06:37:58.203Z,36.40
2023-05-13T06:40:25.462Z,36.36
2023-05-13T06:42:53.448Z,36.72
2023-05-13T06:45:23.717Z,36.98
2023-05-13T06:47:52.336Z,37.27
2023-05-13T06:50:20.462Z,37.88
2023-05-13T06:52:47.678Z,38.39
2023-05-13T06:55:16.589Z,38.66
2023-05-13T06:57:46.925Z,38.62
2023-05-13T07:00:15.449Z,38.52
2023-05-13T07:02:43.222Z,38.93
2023-05-13T07:05:12.786Z,38.74
2023-05-13T07:07:40.144Z,38.90
2023-05-13T07:10:07.671Z,39.30
2023-05-13T07:12:35.065Z,39.84
2023-05-13T07:15:02.694Z,38.88
2023-05-13T07:17:31.469Z,38.57
2023-05-13T07:19:59.374Z,38.14
2023-05-13T07:22:26.489Z,38.61
2023-05-13T07:24:53.952Z,39.08
2023-05-13T07:27:21.991Z,38.89
2023-05-13T07:29:49.115Z,38.88
2023-05-13T07:32:16.134Z,39.08
2023-05-13T07:34:43.390Z,38.56
2023-05-13T07:37:10.685Z,38.17
2023-05-13T07:39:37.811Z,38.37
2023-05-13T07:42:05.169Z,38.11
2023-05-13T07:44:32.130Z,37.18
2023-05-13T07:46:59.191Z,36.85
2023-05-13T07:49:26.324Z,36.98
2023-05-13T07:51:53.697Z,36.69
2023-05-13T07:54:21.117Z,35.95
2023-05-13T07:56:48.211Z,35.47
2023-05-13T07:59:15.480Z,35.49
2023-05-13T08:01:43.213Z,35.35
2023-05-13T08:06:37.827Z,35.76
2023-05-13T08:09:05.098Z,35.52
2023-05-13T08:11:32.488Z,35.34
2023-05-13T08:13:59.636Z,35.54
2023-05-13T08:16:26.900Z,35.08
2023-05-13T08:18:54.359Z,34.81
2023-05-13T08:21:21.646Z,34.70
2023-05-13T08:23:51.201Z,35.33
2023-05-13T08:26:19.026Z,35.67
2023-05-13T08:28:46.399Z,35.45
2023-05-13T08:31:14.333Z,35.83
2023-05-13T08:33:42.902Z,36.35
2023-05-13T08:36:10.257Z,36.73
2023-05-13T08:38:37.725Z,36.73
2023-05-13T08:41:06.605Z,37.15
2023-05-13T08:43:34.453Z,38.05
2023-05-13T08:46:04.373Z,39.39
2023-05-13T08:48:32.569Z,40.37
2023-05-13T08:51:02.363Z,41.42
2023-05-13T08:53:29.966Z,42.44
2023-05-13T08:55:57.814Z,41.93
2023-05-13T08:58:25.826Z,41.23
2023-05-13T09:00:56.548Z,40.58
2023-05-13T09:03:24.614Z,39.73
2023-05-13T09:05:51.695Z,38.64
2023-05-13T09:08:18.764Z,36.80
2023-05-13T09:10:46.104Z,35.16
2023-05-13T09:13:14.531Z,34.85
2023-05-13T09:15:43.402Z,35.13
2023-05-13T09:18:11.247Z,35.45
2023-05-13T09:20:38.730Z,36.38
2023-05-13T09:23:13.444Z,35.91
2023-05-13T09:25:41.021Z,35.30
2023-05-13T09:28:08.757Z,35.10
2023-05-13T09:30:44.582Z,34.91
2023-05-13T09:33:14.873Z,35.88
2023-05-13T09:35:55.283Z,35.72
2023-05-13T09:38:27.944Z,35.99
2023-05-13T09:41:00.773Z,36.28
2023-05-13T09:43:33.193Z,37.09
2023-05-13T09:46:06.320Z,38.28
2023-05-13T09:48:34.654Z,40.02
2023-05-13T09:51:01.986Z,41.43
2023-05-13T09:53:29.824Z,42.20
2023-05-13T09:56:00.355Z,42.65
2023-05-13T09:58:29.386Z,41.96
2023-05-13T10:00:57.565Z,41.82
2023-05-13T10:03:24.974Z,42.40
2023-05-13T10:05:53.961Z,43.23
2023-05-13T10:08:22.782Z,44.07
2023-05-13T10:10:54.310Z,44.60
2023-05-13T10:13:24.667Z,44.47
2023-05-13T10:15:55.041Z,44.46
2023-05-13T10:18:24.090Z,44.71
2023-05-13T10:20:53.970Z,44.88
2023-05-13T10:23:22.858Z,45.40
2023-05-13T10:25:55.013Z,45.75
2023-05-13T10:28:22.924Z,46.27
2023-05-13T10:30:54.375Z,46.25
2023-05-13T10:33:22.049Z,46.52
2023-05-13T10:36:21.501Z,46.92
2023-05-13T10:39:16.842Z,47.00
2023-05-13T10:42:18.192Z,46.89
2023-05-13T10:44:45.519Z,45.90
2023-05-13T10:47:13.326Z,44.85
2023-05-13T10:49:40.838Z,44.82
2023-05-13T10:52:14.136Z,44.75
2023-05-13T10:54:42.479Z,44.79
2023-05-13T10:57:10.644Z,44.42
2023-05-13T10:59:39.019Z,44.35
2023-05-13T11:02:25.380Z,43.75
2023-05-13T11:05:02.328Z,42.47
2023-05-13T11:07:30.019Z,41.24
2023-05-13T11:09:57.390Z,40.94
2023-05-13T11:12:24.628Z,41.02
2023-05-13T11:14:56.122Z,41.21
2023-05-13T11:17:23.648Z,41.75
2023-05-13T11:19:52.533Z,42.63
2023-05-13T11:22:21.598Z,43.60
2023-05-13T11:25:17.876Z,44.13
2023-05-13T11:27:47.501Z,43.56
2023-05-13T11:30:26.072Z,42.80
2023-05-13T11:33:00.155Z,42.28
2023-05-13T11:35:30.112Z,41.98
2023-05-13T11:38:02.305Z,42.28
2023-05-13T11:40:31.890Z,42.35
2023-05-13T11:42:59.787Z,42.45
2023-05-13T11:45:28.399Z,41.84
2023-05-13T11:47:56.609Z,40.91
2023-05-13T11:50:30.848Z,40.08
2023-05-13T11:53:00.902Z,39.15
2023-05-13T11:55:30.139Z,38.12
2023-05-13T11:57:58.849Z,37.05
2023-05-13T12:00:27.650Z,36.05
2023-05-13T12:02:55.926Z,35.18
2023-05-13T12:05:24.022Z,34.42
2023-05-13T12:07:52.513Z,33.73
2023-05-13T12:10:19.757Z,33.17
2023-05-13T12:12:47.257Z,32.71
2023-05-13T12:15:17.707Z,32.44
2023-05-13T12:17:45.586Z,32.37
2023-05-13T12:20:17.611Z,32.78
2023-05-13T12:22:44.620Z,33.74
2023-05-13T12:25:36.491Z,34.53
2023-05-13T12:28:12.157Z,35.29
2023-05-13T12:30:41.305Z,35.55
2023-05-13T12:33:16.354Z,35.65
2023-05-13T12:35:44.508Z,35.63
2023-05-13T12:38:16.717Z,35.49
2023-05-13T12:40:45.246Z,35.24
2023-05-13T12:43:13.513Z,34.85
2023-05-13T12:45:44.903Z,34.42
2023-05-13T12:48:12.631Z,34.00
2023-05-13T12:50:39.935Z,33.66
2023-05-13T12:53:07.037Z,33.42
2023-05-13T12:55:40.268Z,33.21
2023-05-13T12:58:11.308Z,33.15
2023-05-13T13:00:38.680Z,33.45
2023-05-13T13:03:06.274Z,33.96
2023-05-13T13:05:33.910Z,34.65
2023-05-13T13:08:07.278Z,34.92
2023-05-13T13:10:35.039Z,34.98
2023-05-13T13:13:02.272Z,35.30
2023-05-13T13:15:29.547Z,35.69
2023-05-13T13:17:56.902Z,35.68
2023-05-13T13:20:24.250Z,35.77
2023-05-13T13:22:53.345Z,36.05
2023-05-13T13:25:20.800Z,36.07
2023-05-13T13:27:48.611Z,36.02
2023-05-13T13:30:15.746Z,35.89
2023-05-13T13:32:42.835Z,35.69
2023-05-13T13:35:10.807Z,35.26
2023-05-13T13:37:38.192Z,34.82
2023-05-13T13:40:05.978Z,34.23
2023-05-13T13:42:43.529Z,33.46
2023-05-13T13:45:12.655Z,32.62
2023-05-13T13:47:40.633Z,31.99
2023-05-13T13:50:08.426Z,31.29
2023-05-13T13:52:35.811Z,30.62
2023-05-13T13:55:03.623Z,30.05
2023-05-13T13:57:30.913Z,29.52
2023-05-13T13:59:57.903Z,28.94
2023-05-13T14:02:25.712Z,28.47
2023-05-13T14:04:54.046Z,28.00
2023-05-13T14:07:21.701Z,27.72
2023-05-13T14:09:50.268Z,27.74
2023-05-13T14:12:17.880Z,27.80
2023-05-13T14:14:45.010Z,27.94
2023-05-13T14:17:14.371Z,28.17
2023-05-13T14:19:42.068Z,28.34
2023-05-13T14:22:09.292Z,28.70
2023-05-13T14:24:36.938Z,29.13
2023-05-13T14:27:04.705Z,29.45
2023-05-13T14:29:31.959Z,29.79
2023-05-13T14:31:59.875Z,30.00
2023-05-13T14:34:28.000Z,30.12
2023-05-13T14:36:55.549Z,30.04
2023-05-13T14:39:22.864Z,29.80
2023-05-13T14:41:50.159Z,29.47
2023-05-13T14:44:17.315Z,29.10
2023-05-13T14:46:47.327Z,28.86
2023-05-13T14:49:15.565Z,28.66
2023-05-13T14:51:43.739Z,28.47
2023-05-13T14:54:11.134Z,28.27
2023-05-13T14:56:38.765Z,28.06
2023-05-13T14:59:05.944Z,27.90
2023-05-13T15:01:33.679Z,27.79
2023-05-13T15:04:01.523Z,27.71
2023-05-13T15:06:29.561Z,27.63
2023-05-13T15:08:57.672Z,27.57
2023-05-13T15:11:28.556Z,27.49
2023-05-13T15:13:56.296Z,27.29
2023-05-13T15:16:23.591Z,27.05
2023-05-13T15:18:51.844Z,26.81
2023-05-13T15:21:19.084Z,26.56
2023-05-13T15:23:48.611Z,26.32
2023-05-13T15:26:16.056Z,26.10
2023-05-13T15:28:43.662Z,25.85
2023-05-13T15:31:11.311Z,25.60
2023-05-13T15:33:39.310Z,25.41
2023-05-13T15:36:07.201Z,25.25
2023-05-13T15:38:34.420Z,25.16
2023-05-13T15:41:04.110Z,25.12
2023-05-13T15:43:32.328Z,25.08
2023-05-13T15:46:00.528Z,25.08
2023-05-13T15:48:27.898Z,25.09
2023-05-13T15:50:55.419Z,25.10
2023-05-13T15:53:23.036Z,25.14
2023-05-13T15:55:50.200Z,25.21
2023-05-13T15:58:17.567Z,25.27
2023-05-13T16:00:44.767Z,25.37
2023-05-13T16:03:12.181Z,25.47
2023-05-13T16:05:39.683Z,25.51
2023-05-13T16:08:07.417Z,25.54
2023-05-13T16:10:35.922Z,25.55
2023-05-13T16:13:04.058Z,25.57
2023-05-13T16:15:31.804Z,25.58
2023-05-13T16:17:59.725Z,25.58
2023-05-13T16:20:27.088Z,25.59
2023-05-13T16:22:54.876Z,25.57
2023-05-13T16:25:24.165Z,25.54
2023-05-13T16:27:51.965Z,25.50
2023-05-13T16:30:19.901Z,25.38
2023-05-13T16:32:53.085Z,25.20
2023-05-13T16:35:21.928Z,24.92
2023-05-13T16:37:49.802Z,24.67
2023-05-13T16:40:17.416Z,24.42
2023-05-13T16:42:44.729Z,24.16
2023-05-13T16:45:12.296Z,23.91
2023-05-13T16:47:42.186Z,23.66
2023-05-13T16:50:09.855Z,23.40
2023-05-13T16:52:37.061Z,23.15
2023-05-13T16:55:04.610Z,22.90
2023-05-13T16:57:31.786Z,22.67
2023-05-13T16:59:58.977Z,22.42
2023-05-13T17:02:26.740Z,22.14
2023-05-13T17:04:54.062Z,21.90
2023-05-13T17:07:21.145Z,21.66
2023-05-13T17:09:48.282Z,21.41
2023-05-13T17:12:16.885Z,21.13
2023-05-13T17:14:44.188Z,20.82
2023-05-13T17:17:11.340Z,20.53
2023-05-13T17:19:38.381Z,20.22
2023-05-13T17:22:05.766Z,19.90
2023-05-13T17:24:33.135Z,19.63
2023-05-13T17:27:00.305Z,19.36
2023-05-13T17:29:27.221Z,19.11
2023-05-13T17:31:54.499Z,18.84
2023-05-13T17:34:21.652Z,18.58
2023-05-13T17:36:50.126Z,18.34
2023-05-13T17:39:17.359Z,18.14
2023-05-13T17:41:44.480Z,17.91
2023-05-13T17:44:11.607Z,17.69
2023-05-13T17:46:40.947Z,17.47
2023-05-13T17:49:08.255Z,17.24
2023-05-13T17:51:35.924Z,17.03
2023-05-13T17:54:05.356Z,16.80
2023-05-13T17:56:32.941Z,16.64
2023-05-13T17:59:00.192Z,16.48
2023-05-13T18:01:27.658Z,16.35
2023-05-13T18:03:55.432Z,16.23
2023-05-13T18:06:22.452Z,16.09
2023-05-13T18:08:49.686Z,15.93
2023-05-13T18:11:16.613Z,15.72
2023-05-13T18:13:43.664Z,15.53
2023-05-13T18:16:11.672Z,15.38
2023-05-13T18:18:38.704Z,15.27
2023-05-13T18:21:05.683Z,15.20
2023-05-13T18:23:33.248Z,15.08
2023-05-13T18:26:00.627Z,14.95
2023-05-13T18:28:28.054Z,14.78
2023-05-13T18:30:55.429Z,14.61
2023-05-13T18:33:22.645Z,14.44
2023-05-13T18:35:50.042Z,14.28
2023-05-13T18:38:17.181Z,14.17
2023-05-13T18:40:44.555Z,14.02
2023-05-13T18:43:11.628Z,13.92
2023-05-13T18:45:38.710Z,13.82
2023-05-13T18:48:06.231Z,13.73
2023-05-13T18:50:33.370Z,13.64
2023-05-13T18:53:00.424Z,13.62
2023-05-13T18:55:27.836Z,13.58
2023-05-13T18:57:54.859Z,13.55
2023-05-13T19:00:21.998Z,13.48
2023-05-13T19:02:49.407Z,13.36
2023-05-13T19:05:17.494Z,13.14
2023-05-13T19:07:46.578Z,13.02
2023-05-13T19:10:13.567Z,12.90
2023-05-13T19:12:40.926Z,12.75
2023-05-13T19:15:08.611Z,12.61
2023-05-13T19:17:39.019Z,12.41
2023-05-13T19:20:08.417Z,12.24
2023-05-13T19:22:35.514Z,12.10
2023-05-13T19:25:02.428Z,12.02
2023-05-13T19:27:29.566Z,11.99
2023-05-13T19:29:56.576Z,11.96
2023-05-13T19:32:23.716Z,11.86
2023-05-13T19:34:50.757Z,11.72
2023-05-13T19:37:17.775Z,11.55
2023-05-13T19:39:45.560Z,11.40
2023-05-13T19:42:12.608Z,11.26
2023-05-13T19:44:39.763Z,11.18
2023-05-13T19:47:06.850Z,11.11
2023-05-13T19:49:33.818Z,11.05
2023-05-13T19:52:00.833Z,11.00
2023-05-13T19:54:27.836Z,10.98
2023-05-13T19:56:54.773Z,10.97
2023-05-13T19:59:22.127Z,10.92
2023-05-13T20:01:49.145Z,10.85
2023-05-13T20:04:16.626Z,10.77
2023-05-13T20:06:43.626Z,10.69
2023-05-13T20:09:12.108Z,10.60
2023-05-13T20:11:39.315Z,10.49
2023-05-13T20:14:06.418Z,10.42
2023-05-13T20:16:33.505Z,10.38
2023-05-13T20:19:00.670Z,10.32
2023-05-13T20:21:27.691Z,10.30
2023-05-13T20:23:54.841Z,10.28
2023-05-13T20:26:22.155Z,10.30
2023-05-13T20:28:51.576Z,10.34
2023-05-13T20:31:18.731Z,10.38
2023-05-13T20:33:45.805Z,10.42
2023-05-13T20:36:12.936Z,10.44
2023-05-13T20:38:40.092Z,10.45
2023-05-13T20:41:07.417Z,10.44
2023-05-13T20:43:35.649Z,10.40
2023-05-13T20:46:04.196Z,10.35
2023-05-13T20:48:35.208Z,10.32
2023-05-13T20:51:04.687Z,10.31
2023-05-13T20:53:37.799Z,10.29
2023-05-13T20:56:05.058Z,10.26
2023-05-13T20:58:32.061Z,10.24
2023-05-13T21:00:59.242Z,10.22
2023-05-13T21:03:26.304Z,10.21
2023-05-13T21:05:53.168Z,10.22
2023-05-13T21:08:20.192Z,10.21
2023-05-13T21:10:47.098Z,10.25
2023-05-13T21:13:14.022Z,10.29
2023-05-13T21:15:41.217Z,10.35
2023-05-13T21:18:08.539Z,10.42
2023-05-13T21:20:35.682Z,10.53
2023-05-13T21:23:02.745Z,10.60
2023-05-13T21:25:29.778Z,10.69
2023-05-13T21:27:56.834Z,10.77
2023-05-13T21:30:24.165Z,10.82
2023-05-13T21:32:51.542Z,10.88
2023-05-13T21:35:19.516Z,10.92
2023-05-13T21:37:47.492Z,10.94
2023-05-13T21:40:15.231Z,10.94
2023-05-13T21:42:42.157Z,10.90
2023-05-13T21:45:09.545Z,10.82
2023-05-13T21:47:36.982Z,10.71
2023-05-13T21:50:07.588Z,10.58
2023-05-13T21:52:34.843Z,10.46
2023-05-13T21:55:02.018Z,10.33
2023-05-13T21:57:29.255Z,10.19
2023-05-13T21:59:56.228Z,10.07
2023-05-13T22:02:23.341Z,9.97
2023-05-13T22:04:50.394Z,9.86
2023-05-13T22:07:17.629Z,9.76
2023-05-13T22:09:45.088Z,9.68
2023-05-13T22:12:12.162Z,9.61
2023-05-13T22:14:39.483Z,9.54
2023-05-13T22:17:09.557Z,9.48
2023-05-13T22:19:37.494Z,9.44
2023-05-13T22:22:04.793Z,9.44
2023-05-13T22:24:31.995Z,9.45
2023-05-13T22:27:00.359Z,9.48
2023-05-13T22:29:27.675Z,9.51
2023-05-13T22:31:57.671Z,9.59
2023-05-13T22:34:26.626Z,9.65
2023-05-13T22:36:54.167Z,9.71
2023-05-13T22:39:21.332Z,9.77
2023-05-13T22:41:48.215Z,9.81
2023-05-13T22:44:15.176Z,9.83
2023-05-13T22:46:42.133Z,9.84
2023-05-13T22:49:10.595Z,9.86
2023-05-13T22:51:37.702Z,9.89
2023-05-13T22:54:04.675Z,9.92
2023-05-13T22:56:31.588Z,9.91
2023-05-13T22:58:59.400Z,9.91
2023-05-13T23:01:26.940Z,9.90
2023-05-13T23:03:53.903Z,9.89
2023-05-13T23:06:20.881Z,9.89
2023-05-13T23:08:47.927Z,9.91
2023-05-13T23:11:14.902Z,9.93
2023-05-13T23:13:41.720Z,9.95
2023-05-13T23:16:08.773Z,10.00
2023-05-13T23:18:35.884Z,10.06
2023-05-13T23:21:02.928Z,10.09
2023-05-13T23:23:30.026Z,10.12
2023-05-13T23:25:57.301Z,10.12
2023-05-13T23:28:24.296Z,10.12
2023-05-13T23:30:56.915Z,10.11
2023-05-13T23:33:24.070Z,10.09
2023-05-13T23:35:54.874Z,10.09
2023-05-13T23:38:22.286Z,10.08
2023-05-13T23:40:49.247Z,10.07
2023-05-13T23:43:16.346Z,10.04
2023-05-13T23:45:43.427Z,10.00
2023-05-13T23:48:10.522Z,9.95
2023-05-13T23:50:37.657Z,9.89
2023-05-13T23:53:04.560Z,9.79
2023-05-13T23:55:31.443Z,9.71
2023-05-13T23:57:58.918Z,9.63
